Time;durP1;ratioP1;P1;durP2;ratioP2;P2;SDS_P1;SDS_P2;PMS_P1;PMS_P2;Temp;Humidity;BMP_temperature;BMP_pressure;BME280_temperature;BME280_humidity;BME280_pressure;Samples;Min_cycle;Max_cycle;Signal;HPM_P1;HPM_P2
2022/05/23 00:01:49;;;;;;;3.25;2.33;;;17.40;99.90;;;;;;4955720;29;20603;-63
2022/05/23 00:04:18;;;;;;;2.90;2.60;;;17.70;99.90;;;;;;4953700;28;20266;-64
2022/05/23 00:06:46;;;;;;;4.05;2.40;;;17.90;99.90;;;;;;4952388;28;20207;-64
2022/05/23 00:09:14;;;;;;;4.22;2.50;;;18.00;99.90;;;;;;4953929;28;20195;-64
2022/05/23 00:11:42;;;;;;;6.38;2.55;;;17.90;99.90;;;;;;4955454;28;20195;-63
2022/05/23 00:14:11;;;;;;;4.30;2.13;;;17.60;99.90;;;;;;4953783;28;20235;-64
2022/05/23 00:16:42;;;;;;;2.80;2.35;;;17.40;99.90;;;;;;4952962;28;20207;-61
2022/05/23 00:19:11;;;;;;;3.03;1.63;;;17.30;99.90;;;;;;4953045;28;20200;-61
2022/05/23 00:21:42;;;;;;;3.05;2.58;;;17.40;99.90;;;;;;4952547;28;20565;-61
2022/05/23 00:24:12;;;;;;;2.75;1.75;;;17.30;99.90;;;;;;4957921;28;20742;-62
2022/05/23 00:26:41;;;;;;;3.10;2.50;;;17.30;99.90;;;;;;4953521;28;20254;-61
2022/05/23 00:29:10;;;;;;;3.10;2.10;;;17.30;99.90;;;;;;4952725;28;20204;-62
2022/05/23 00:35:17;;;;;;;3.55;2.03;;;17.20;99.90;;;;;;4950614;28;20250;-61
2022/05/23 00:37:12;;;;;;;2.40;1.95;;;17.20;99.90;;;;;;4953899;29;20203;-61
2022/05/23 00:39:40;;;;;;;2.17;1.80;;;17.20;99.90;;;;;;4954534;29;20552;-63
2022/05/23 00:44:58;;;;;;;6.78;2.10;;;17.60;99.90;;;;;;4953494;28;20294;-63
2022/05/23 00:47:29;;;;;;;3.72;2.50;;;17.60;99.90;;;;;;4950887;28;21446;-64
2022/05/23 00:49:57;;;;;;;2.03;1.90;;;17.50;99.90;;;;;;4953776;28;20290;-63
2022/05/23 00:52:30;;;;;;;3.17;2.25;;;17.30;99.90;;;;;;4957603;28;20273;-63
2022/05/23 00:55:00;;;;;;;2.50;2.10;;;17.30;99.90;;;;;;4953429;28;20220;-64
2022/05/23 00:57:32;;;;;;;2.83;2.15;;;17.30;99.90;;;;;;4952205;28;20259;-64
2022/05/23 01:00:02;;;;;;;4.43;2.38;;;17.30;99.90;;;;;;4949334;28;20605;-63
2022/05/23 01:02:31;;;;;;;4.35;2.65;;;17.30;99.90;;;;;;4950285;28;20258;-64
2022/05/23 01:04:59;;;;;;;3.50;2.42;;;17.20;99.90;;;;;;4952274;28;20646;-63
2022/05/23 01:07:28;;;;;;;3.10;2.30;;;17.20;99.90;;;;;;4949819;28;20207;-64
2022/05/23 01:09:56;;;;;;;3.10;2.10;;;17.20;99.90;;;;;;4948834;28;20260;-63
2022/05/23 01:12:25;;;;;;;3.75;1.85;;;17.10;99.90;;;;;;4951261;28;20208;-64
2022/05/23 01:14:57;;;;;;;3.22;1.90;;;17.10;99.90;;;;;;4952377;28;20227;-64
2022/05/23 01:17:27;;;;;;;2.80;2.20;;;17.10;99.90;;;;;;4952789;28;20211;-63
2022/05/23 01:19:55;;;;;;;6.25;2.00;;;17.10;99.90;;;;;;4954299;29;20562;-63
2022/05/23 01:22:34;;;;;;;3.33;1.83;;;17.10;99.90;;;;;;4954929;28;20767;-64
2022/05/23 01:25:09;;;;;;;5.03;2.30;;;17.20;99.90;;;;;;4958749;28;20258;-63
2022/05/23 01:27:41;;;;;;;2.08;1.73;;;17.40;99.90;;;;;;4952386;28;20205;-64
2022/05/23 01:30:10;;;;;;;3.40;2.25;;;17.40;99.90;;;;;;4946948;28;20192;-63
2022/05/23 01:32:38;;;;;;;3.58;2.17;;;17.30;99.90;;;;;;4948953;28;20204;-63
2022/05/23 01:35:07;;;;;;;2.33;1.70;;;17.30;99.90;;;;;;4945869;28;20274;-64
2022/05/23 01:37:35;;;;;;;3.70;2.10;;;17.30;99.90;;;;;;4948364;28;20215;-64
2022/05/23 01:40:05;;;;;;;4.05;2.30;;;17.20;99.90;;;;;;4952394;28;20238;-63
2022/05/23 01:42:33;;;;;;;3.30;1.80;;;17.20;99.90;;;;;;4951664;28;20203;-65
2022/05/23 01:45:03;;;;;;;2.45;1.80;;;17.30;99.90;;;;;;4950607;28;20235;-63
2022/05/23 01:47:31;;;;;;;2.08;1.95;;;17.20;99.90;;;;;;4951479;28;20239;-63
2022/05/23 01:49:59;;;;;;;1.75;1.65;;;17.20;99.90;;;;;;4950846;28;20211;-64
2022/05/23 01:52:27;;;;;;;3.85;1.83;;;17.10;99.90;;;;;;4945206;28;20214;-63
2022/05/23 01:54:55;;;;;;;2.92;1.75;;;17.10;99.90;;;;;;4951116;28;20223;-63
2022/05/23 01:57:23;;;;;;;4.82;2.58;;;17.00;99.90;;;;;;4949813;28;20207;-64
2022/05/23 02:02:38;;;;;;;3.50;1.80;;;17.00;99.90;;;;;;4948192;28;20826;-64
2022/05/23 02:05:06;;;;;;;2.75;2.20;;;17.00;99.90;;;;;;4952259;28;20219;-64
2022/05/23 02:07:34;;;;;;;3.92;2.65;;;16.90;99.90;;;;;;4953418;29;20247;-64
2022/05/23 02:10:02;;;;;;;3.00;1.50;;;16.80;99.90;;;;;;4952673;28;20779;-64
2022/05/23 02:12:30;;;;;;;2.03;1.80;;;16.80;99.90;;;;;;4947067;28;20922;-64
2022/05/23 02:14:58;;;;;;;4.15;2.67;;;16.80;99.90;;;;;;4951342;28;20738;-64
2022/05/23 02:17:26;;;;;;;3.17;1.92;;;16.70;99.90;;;;;;4950682;28;20199;-64
2022/05/23 02:19:55;;;;;;;10.60;2.50;;;16.70;99.90;;;;;;4949901;28;20208;-64
2022/05/23 02:22:23;;;;;;;2.53;2.30;;;16.70;99.90;;;;;;4948099;28;20668;-64
2022/05/23 02:24:51;;;;;;;2.00;1.80;;;16.60;99.90;;;;;;4955790;28;20215;-63
2022/05/23 02:27:19;;;;;;;3.40;2.42;;;16.60;99.90;;;;;;4948867;29;20207;-63
2022/05/23 02:29:47;;;;;;;2.53;2.10;;;16.50;99.90;;;;;;4951675;29;20267;-63
2022/05/23 02:32:15;;;;;;;6.53;2.70;;;16.50;99.90;;;;;;4949644;28;20227;-64
2022/05/23 02:34:43;;;;;;;3.45;2.50;;;16.40;99.90;;;;;;4949395;28;20227;-64
2022/05/23 02:37:12;;;;;;;4.85;2.60;;;16.30;99.90;;;;;;4951656;29;20865;-63
2022/05/23 02:39:40;;;;;;;4.10;2.13;;;16.20;99.90;;;;;;4952037;29;20343;-63
2022/05/23 02:42:15;;;;;;;7.15;2.50;;;16.20;99.90;;;;;;4952430;29;20209;-63
2022/05/23 02:44:42;;;;;;;4.38;2.55;;;16.20;99.90;;;;;;4975809;23;20239;-60
2022/05/23 02:47:10;;;;;;;6.60;2.40;;;16.30;99.90;;;;;;4940953;28;21275;-58
2022/05/23 02:49:39;;;;;;;2.33;2.10;;;16.30;99.90;;;;;;4933378;28;20234;-59
2022/05/23 02:52:07;;;;;;;3.42;2.33;;;16.30;99.90;;;;;;4935299;28;20203;-59
2022/05/23 02:54:36;;;;;;;3.95;2.42;;;16.20;99.90;;;;;;4935965;28;20208;-58
2022/05/23 02:57:05;;;;;;;3.45;2.28;;;16.30;99.90;;;;;;4936199;29;20275;-60
2022/05/23 02:59:33;;;;;;;8.25;3.17;;;16.20;99.90;;;;;;4942299;29;20212;-61
2022/05/23 03:04:47;;;;;;;2.92;2.72;;;16.30;99.90;;;;;;4939582;29;20215;-60
2022/05/23 03:07:15;;;;;;;4.47;3.15;;;16.30;99.90;;;;;;4952302;29;20231;-60
2022/05/23 03:09:45;;;;;;;4.22;3.20;;;16.30;99.90;;;;;;4952328;29;20279;-60
2022/05/23 03:12:13;;;;;;;3.92;2.60;;;16.30;99.90;;;;;;4952842;28;20211;-61
2022/05/23 03:14:41;;;;;;;5.93;2.40;;;16.30;99.90;;;;;;4940219;28;20832;-61
2022/05/23 03:17:09;;;;;;;2.67;2.47;;;16.40;99.90;;;;;;4934097;29;20204;-61
2022/05/23 03:19:39;;;;;;;2.50;2.30;;;16.30;99.90;;;;;;4934042;29;20316;-61
2022/05/23 03:27:43;;;;;;;4.20;2.45;;;16.40;99.90;;;;;;4933978;29;20251;-59
2022/05/23 03:30:12;;;;;;;5.63;2.95;;;16.40;99.90;;;;;;4934275;29;20235;-59
2022/05/23 03:32:41;;;;;;;5.00;2.70;;;16.40;99.90;;;;;;4936778;29;21039;-60
2022/05/23 03:35:09;;;;;;;3.35;3.05;;;16.40;99.90;;;;;;4937356;29;20729;-61
2022/05/23 03:37:37;;;;;;;4.00;2.63;;;16.30;99.90;;;;;;4937952;29;20211;-60
2022/05/23 03:40:08;;;;;;;4.28;2.65;;;16.40;99.90;;;;;;4954817;29;20245;-60
2022/05/23 03:42:36;;;;;;;3.85;2.53;;;16.50;99.90;;;;;;4955486;29;20303;-60
2022/05/23 03:45:07;;;;;;;5.00;2.53;;;16.50;99.90;;;;;;4955302;29;20349;-60
2022/05/23 03:47:35;;;;;;;2.78;2.38;;;16.60;99.90;;;;;;4956065;28;20274;-60
2022/05/23 03:50:03;;;;;;;3.45;3.15;;;16.60;99.90;;;;;;4952756;29;20204;-60
2022/05/23 03:52:31;;;;;;;2.63;2.42;;;16.50;99.90;;;;;;4936415;28;20613;-60
2022/05/23 03:54:59;;;;;;;3.28;2.55;;;16.50;99.90;;;;;;4951368;29;20298;-60
2022/05/23 03:57:28;;;;;;;7.00;2.50;;;16.70;99.90;;;;;;4931352;28;20302;-60
2022/05/23 03:59:57;;;;;;;4.68;2.30;;;16.80;99.90;;;;;;4949023;29;20278;-60
2022/05/23 04:02:25;;;;;;;6.50;2.75;;;17.20;99.90;;;;;;4929768;28;22062;-58
2022/05/23 04:04:53;;;;;;;3.95;2.63;;;17.30;99.90;;;;;;4920153;29;20251;-60
2022/05/23 04:07:21;;;;;;;2.85;2.47;;;17.50;99.90;;;;;;4925445;28;22259;-58
2022/05/23 04:09:49;;;;;;;6.10;3.15;;;17.70;99.90;;;;;;4919529;29;20236;-59
2022/05/23 04:12:17;;;;;;;3.97;2.45;;;17.90;99.90;;;;;;4917654;29;20204;-58
2022/05/23 04:14:46;;;;;;;2.67;2.30;;;18.00;99.90;;;;;;4919387;29;20303;-60
2022/05/23 04:17:14;;;;;;;5.28;2.80;;;17.90;99.90;;;;;;4928750;28;20227;-60
2022/05/23 04:19:42;;;;;;;4.07;2.55;;;17.90;99.90;;;;;;4924660;29;20212;-60
2022/05/23 04:22:10;;;;;;;5.28;3.17;;;17.80;99.90;;;;;;4944267;28;20238;-60
2022/05/23 04:24:38;;;;;;;4.88;3.17;;;17.40;99.90;;;;;;4944747;28;20231;-62
2022/05/23 04:27:06;;;;;;;6.18;4.13;;;17.20;99.90;;;;;;4951405;29;20219;-61
2022/05/23 04:29:33;;;;;;;4.43;3.47;;;17.10;99.90;;;;;;4946124;28;20236;-63
2022/05/23 04:35:12;;;;;;;5.50;2.53;;;17.00;99.90;;;;;;4942274;29;20302;-62
2022/05/23 04:37:37;;;;;;;5.20;2.70;;;17.00;99.90;;;;;;4936361;29;20246;-63
2022/05/23 04:40:06;;;;;;;3.88;2.63;;;16.90;99.90;;;;;;4936511;29;20216;-63
2022/05/23 04:42:34;;;;;;;3.13;2.92;;;17.00;99.90;;;;;;4938548;29;20290;-63
2022/05/23 04:45:03;;;;;;;4.68;3.00;;;17.00;99.90;;;;;;4935932;29;20235;-63
2022/05/23 04:50:18;;;;;;;3.17;2.83;;;16.80;99.90;;;;;;4948269;28;20293;-62
2022/05/23 04:52:46;;;;;;;6.03;3.65;;;16.80;99.90;;;;;;4951564;28;20210;-61
2022/05/23 04:55:14;;;;;;;4.35;3.95;;;16.90;99.90;;;;;;4952342;28;20819;-60
2022/05/23 04:57:42;;;;;;;8.88;3.42;;;16.90;99.90;;;;;;4949125;28;20303;-63
2022/05/23 05:00:13;;;;;;;4.88;3.58;;;16.80;99.90;;;;;;4951207;28;20659;-62
2022/05/23 05:02:43;;;;;;;5.25;3.53;;;16.80;99.90;;;;;;4950438;28;20354;-62
2022/05/23 05:05:12;;;;;;;7.40;3.20;;;16.80;99.90;;;;;;4949023;28;20318;-62
2022/05/23 05:07:40;;;;;;;3.72;3.40;;;16.70;99.90;;;;;;4948761;28;20994;-62
2022/05/23 05:10:09;;;;;;;3.97;3.25;;;16.60;99.90;;;;;;4953691;28;20235;-62
2022/05/23 05:12:37;;;;;;;5.25;3.20;;;16.60;99.90;;;;;;4950371;28;20238;-62
2022/05/23 05:15:06;;;;;;;3.65;3.33;;;16.60;99.90;;;;;;4952088;28;20310;-61
2022/05/23 05:17:34;;;;;;;5.50;3.22;;;16.50;99.90;;;;;;4948937;28;20689;-62
2022/05/23 05:20:04;;;;;;;4.75;3.58;;;16.60;99.90;;;;;;4947749;28;20620;-62
2022/05/23 05:22:32;;;;;;;3.80;3.50;;;16.50;99.90;;;;;;4944841;28;20247;-63
2022/05/23 05:25:00;;;;;;;4.88;3.17;;;16.50;99.90;;;;;;4939985;29;20234;-63
2022/05/23 05:27:29;;;;;;;3.88;3.38;;;16.50;99.90;;;;;;4935244;29;20326;-63
2022/05/23 05:29:57;;;;;;;5.38;3.60;;;16.40;99.90;;;;;;4935405;29;20212;-63
2022/05/23 05:32:32;;;;;;;3.88;3.50;;;16.40;99.90;;;;;;4934761;29;20208;-63
2022/05/23 05:35:04;;;;;;;4.53;3.85;;;16.40;99.90;;;;;;4935249;29;20318;-63
2022/05/23 05:37:35;;;;;;;5.38;4.10;;;16.30;99.90;;;;;;4935275;29;20299;-63
2022/05/23 05:40:06;;;;;;;3.83;3.53;;;16.20;99.90;;;;;;4935188;29;20294;-63
2022/05/23 05:42:38;;;;;;;4.88;4.47;;;16.10;99.90;;;;;;4934710;29;20668;-62
2022/05/23 05:45:11;;;;;;;9.70;5.25;;;16.00;99.90;;;;;;4934890;29;20255;-63
2022/05/23 05:47:42;;;;;;;5.13;4.53;;;16.00;99.90;;;;;;4953815;28;20255;-62
2022/05/23 05:50:15;;;;;;;4.90;4.40;;;15.90;99.90;;;;;;4935026;29;20204;-62
2022/05/23 05:52:45;;;;;;;4.45;3.90;;;15.90;99.90;;;;;;4935007;28;20219;-63
2022/05/23 05:55:13;;;;;;;9.00;5.00;;;15.80;99.90;;;;;;4947348;28;20705;-63
2022/05/23 05:57:41;;;;;;;9.25;5.65;;;15.70;99.90;;;;;;4935006;29;20268;-63
2022/05/23 06:00:10;;;;;;;5.20;4.70;;;15.60;99.90;;;;;;4935035;29;20250;-63
2022/05/23 06:02:38;;;;;;;6.60;5.15;;;15.40;99.90;;;;;;4934063;29;20243;-63
2022/05/23 06:05:07;;;;;;;8.68;5.15;;;15.40;99.90;;;;;;4934735;29;20232;-63
2022/05/23 06:13:07;;;;;;;6.53;5.85;;;15.30;99.90;;;;;;4933973;29;20218;-63
2022/05/23 06:15:35;;;;;;;6.38;5.80;;;15.30;99.90;;;;;;4934395;29;20323;-63
2022/05/23 06:18:03;;;;;;;6.80;6.20;;;15.40;99.90;;;;;;4934756;29;20239;-63
2022/05/23 06:20:30;;;;;;;9.52;5.65;;;15.40;99.90;;;;;;4934665;29;20614;-63
2022/05/23 06:23:01;;;;;;;6.13;5.65;;;15.40;99.90;;;;;;4942989;28;20235;-63
2022/05/23 06:25:29;;;;;;;6.35;5.85;;;15.50;99.90;;;;;;4936330;29;20323;-63
2022/05/23 06:27:57;;;;;;;8.02;6.22;;;15.50;99.90;;;;;;4934426;29;20240;-63
2022/05/23 06:30:26;;;;;;;7.72;6.15;;;15.50;99.90;;;;;;4934543;29;20303;-63
2022/05/23 06:32:54;;;;;;;7.30;6.32;;;15.50;99.90;;;;;;4940182;29;20578;-63
2022/05/23 06:35:22;;;;;;;6.03;5.53;;;15.60;99.90;;;;;;4932151;29;20232;-63
2022/05/23 06:37:50;;;;;;;9.07;5.93;;;15.70;99.90;;;;;;4929179;29;20673;-62
2022/05/23 06:40:19;;;;;;;9.02;6.15;;;15.80;99.90;;;;;;4933482;29;20283;-63
2022/05/23 06:42:48;;;;;;;7.20;5.75;;;16.00;99.90;;;;;;4945558;29;20306;-63
2022/05/23 06:45:18;;;;;;;6.88;6.18;;;16.20;99.90;;;;;;4932632;29;20323;-63
2022/05/23 06:47:46;;;;;;;6.40;5.53;;;16.50;99.90;;;;;;4933554;29;20756;-63
2022/05/23 06:50:15;;;;;;;10.68;6.05;;;16.80;99.90;;;;;;4933697;29;20204;-63
2022/05/23 06:52:43;;;;;;;9.25;6.20;;;17.10;99.90;;;;;;4939120;28;20258;-63
2022/05/23 06:55:11;;;;;;;7.13;5.82;;;17.20;99.90;;;;;;4942570;29;20610;-62
2022/05/23 06:57:40;;;;;;;5.13;4.63;;;17.20;99.90;;;;;;4932667;29;20366;-62
2022/05/23 07:00:10;;;;;;;6.47;5.43;;;17.20;99.90;;;;;;4942652;29;20286;-62
2022/05/23 07:02:38;;;;;;;7.07;5.97;;;17.20;99.90;;;;;;4935134;29;20699;-62
2022/05/23 07:13:25;;;;;;;6.75;6.05;;;17.40;99.90;;;;;;4935064;29;20250;-62
2022/05/23 07:15:55;;;;;;;12.18;6.07;;;17.40;99.90;;;;;;4938280;29;20250;-63
2022/05/23 07:18:26;;;;;;;11.85;5.28;;;17.50;99.90;;;;;;4941176;29;20388;-62
2022/05/23 07:20:54;;;;;;;10.68;5.65;;;17.70;99.90;;;;;;4935461;29;20233;-62
2022/05/23 07:23:22;;;;;;;5.60;5.10;;;17.90;99.90;;;;;;4949746;28;20206;-62
2022/05/23 07:25:50;;;;;;;6.35;5.00;;;18.00;99.90;;;;;;4938578;28;20246;-62
2022/05/23 07:28:18;;;;;;;6.28;4.95;;;18.10;99.90;;;;;;4939132;28;20253;-62
2022/05/23 07:30:47;;;;;;;5.22;4.68;;;18.00;99.90;;;;;;4939608;29;20279;-63
2022/05/23 07:33:16;;;;;;;6.63;4.65;;;18.00;99.90;;;;;;4942298;28;20212;-63
2022/05/23 07:35:44;;;;;;;6.38;5.63;;;18.10;99.90;;;;;;4941014;29;20255;-62
2022/05/23 07:38:13;;;;;;;6.32;5.72;;;18.30;99.90;;;;;;4939460;28;20208;-61
2022/05/23 07:40:40;;;;;;;6.22;5.30;;;18.40;99.90;;;;;;4937664;29;20204;-62
2022/05/23 07:43:08;;;;;;;6.93;5.60;;;18.50;99.90;;;;;;4938642;28;20286;-62
2022/05/23 07:45:36;;;;;;;13.07;5.50;;;18.70;99.90;;;;;;4943074;28;20294;-62
2022/05/23 07:48:06;;;;;;;5.97;5.47;;;18.80;99.90;;;;;;4938675;29;20252;-62
2022/05/23 07:50:34;;;;;;;6.25;5.00;;;18.80;99.90;;;;;;4941049;29;20211;-63
2022/05/23 08:01:19;;;;;;;11.63;4.90;;;19.60;99.90;;;;;;4947085;29;20234;-62
2022/05/23 08:03:49;;;;;;;12.23;6.28;;;19.90;99.90;;;;;;4933203;29;20272;-62
2022/05/23 08:06:17;;;;;;;9.77;5.13;;;20.00;99.90;;;;;;4940060;28;20278;-63
2022/05/23 08:08:45;;;;;;;9.52;3.88;;;20.20;99.90;;;;;;4935452;29;20237;-62
2022/05/23 08:11:13;;;;;;;4.22;3.78;;;20.30;99.90;;;;;;4936390;28;20875;-62
2022/05/23 08:13:47;;;;;;;4.90;4.10;;;20.60;99.90;;;;;;4939375;29;20294;-63
2022/05/23 08:16:15;;;;;;;7.30;4.25;;;20.90;99.90;;;;;;4935660;28;20257;-62
2022/05/23 08:18:43;;;;;;;8.60;4.03;;;21.10;99.90;;;;;;4941671;29;20204;-62
2022/05/23 08:21:12;;;;;;;4.43;3.63;;;21.30;99.90;;;;;;4943496;28;20238;-62
2022/05/23 08:23:41;;;;;;;6.07;4.22;;;21.60;99.90;;;;;;4950072;28;20643;-63
2022/05/23 08:26:10;;;;;;;5.55;3.47;;;21.60;99.90;;;;;;4945724;28;20283;-63
2022/05/23 08:28:38;;;;;;;7.60;4.40;;;21.60;99.90;;;;;;4940341;29;20234;-63
2022/05/23 08:31:06;;;;;;;3.53;3.25;;;21.60;99.90;;;;;;4938362;29;20208;-62
2022/05/23 08:33:34;;;;;;;5.30;3.63;;;21.60;99.90;;;;;;4941444;29;20235;-62
2022/05/23 08:36:02;;;;;;;6.38;5.07;;;21.70;99.90;;;;;;4942788;29;20335;-62
2022/05/23 08:38:31;;;;;;;6.13;3.97;;;21.40;99.90;;;;;;4941503;29;20228;-62
2022/05/23 08:41:09;;;;;;;4.15;3.45;;;21.40;99.90;;;;;;4941569;29;20207;-62
2022/05/23 08:43:44;;;;;;;4.20;3.90;;;21.50;99.90;;;;;;4938456;29;20204;-63
2022/05/23 08:46:18;;;;;;;3.15;2.92;;;21.50;99.90;;;;;;4936896;29;20231;-62
2022/05/23 08:48:58;;;;;;;3.83;3.42;;;21.70;99.90;;;;;;4958446;23;20327;-71
2022/05/23 08:51:36;;;;;;;3.72;2.92;;;21.60;99.90;;;;;;4935731;29;20199;-73
2022/05/23 08:54:16;;;;;;;4.22;3.10;;;21.60;99.90;;;;;;4932320;29;20242;-72
2022/05/23 08:56:51;;;;;;;5.25;3.60;;;21.80;99.90;;;;;;4939776;29;20231;-73
2022/05/23 08:59:25;;;;;;;3.00;2.80;;;22.00;99.90;;;;;;4934398;29;20219;-73
2022/05/23 09:01:58;;;;;;;5.18;3.83;;;22.40;99.90;;;;;;4934048;29;20258;-73
2022/05/23 09:04:36;;;;;;;3.55;3.03;;;22.40;99.90;;;;;;4929998;29;20290;-73
2022/05/23 09:07:06;;;;;;;4.05;3.13;;;22.70;99.90;;;;;;4928266;29;20204;-73
2022/05/23 09:09:37;;;;;;;3.00;2.80;;;23.00;99.90;;;;;;4934055;29;20660;-73
2022/05/23 09:12:10;;;;;;;3.50;3.08;;;23.30;99.90;;;;;;4932926;29;20259;-73
2022/05/23 09:14:39;;;;;;;2.80;2.50;;;23.50;99.90;;;;;;4933450;29;20212;-72
2022/05/23 09:17:10;;;;;;;8.00;2.85;;;23.90;99.90;;;;;;4933934;29;20235;-72
2022/05/23 09:19:44;;;;;;;3.60;3.30;;;23.70;99.90;;;;;;4932986;29;20299;-73
2022/05/23 09:22:15;;;;;;;5.18;3.30;;;23.90;99.90;;;;;;4932147;29;20203;-72
2022/05/23 09:24:47;;;;;;;2.75;2.55;;;23.80;99.90;;;;;;4934286;29;20303;-73
2022/05/23 09:27:21;;;;;;;5.55;3.78;;;24.00;99.90;;;;;;4931771;29;20235;-70
2022/05/23 09:29:52;;;;;;;3.80;3.40;;;24.00;99.90;;;;;;4932206;29;20310;-73
2022/05/23 09:32:29;;;;;;;2.47;2.28;;;24.10;99.90;;;;;;4934183;29;20637;-73
2022/05/23 09:34:59;;;;;;;4.18;2.85;;;24.40;99.90;;;;;;4928262;29;20203;-73
2022/05/23 09:37:36;;;;;;;5.40;3.45;;;24.90;99.90;;;;;;4934197;29;20263;-72
2022/05/23 09:40:09;;;;;;;7.55;3.58;;;25.10;99.90;;;;;;4933197;29;20625;-73
2022/05/23 09:48:22;;;;;;;4.88;3.88;;;25.50;99.90;;;;;;4932334;29;20254;-72
2022/05/23 09:50:54;;;;;;;5.03;2.80;;;25.50;99.90;;;;;;4933284;29;20246;-73
2022/05/23 09:53:26;;;;;;;3.22;2.58;;;25.90;99.90;;;;;;4932240;29;20812;-73
2022/05/23 09:56:28;;;;;;;3.33;2.80;;;26.40;99.90;;;;;;4937663;29;20243;-73
2022/05/23 09:58:58;;;;;;;6.97;3.03;;;26.80;99.90;;;;;;4933031;29;20211;-73
2022/05/23 10:01:29;;;;;;;4.47;2.67;;;27.10;99.90;;;;;;4933098;29;20231;-73
2022/05/23 10:03:57;;;;;;;4.40;2.65;;;27.30;99.90;;;;;;4933184;29;20688;-73
2022/05/23 10:06:36;;;;;;;5.03;2.25;;;27.50;99.90;;;;;;4932873;29;20204;-71
2022/05/23 10:09:06;;;;;;;3.20;2.28;;;27.90;99.90;;;;;;4930311;29;20279;-73
2022/05/23 10:11:38;;;;;;;2.65;2.17;;;27.50;99.80;;;;;;4932544;29;20208;-73
2022/05/23 10:14:08;;;;;;;4.50;2.60;;;27.20;99.90;;;;;;4931951;29;20631;-73
2022/05/23 10:16:45;;;;;;;5.70;3.28;;;26.90;99.70;;;;;;4933472;29;20220;-72
2022/05/23 10:19:26;;;;;;;4.03;2.47;;;26.90;99.70;;;;;;4927373;29;20219;-72
2022/05/23 10:22:13;;;;;;;7.60;2.97;;;26.80;99.90;;;;;;4933382;29;20283;-69
2022/05/23 10:24:49;;;;;;;4.10;3.00;;;27.00;99.90;;;;;;4933079;29;20294;-73
2022/05/23 10:27:27;;;;;;;5.15;2.97;;;26.60;99.60;;;;;;4933388;29;20235;-73
2022/05/23 10:29:58;;;;;;;4.20;2.67;;;26.60;99.90;;;;;;4927327;29;20259;-72
2022/05/23 10:32:32;;;;;;;3.83;2.65;;;26.90;99.90;;;;;;4933070;29;20255;-73
2022/05/23 10:35:07;;;;;;;2.40;2.20;;;27.20;99.90;;;;;;4933160;29;20212;-73
2022/05/23 10:37:36;;;;;;;3.40;2.60;;;27.20;99.90;;;;;;4933535;29;20587;-73
2022/05/23 10:43:02;;;;;;;5.00;2.50;;;27.00;99.70;;;;;;4931246;29;20212;-71
2022/05/23 10:45:33;;;;;;;7.15;2.92;;;27.20;99.50;;;;;;4925398;29;20203;-70
2022/05/23 10:48:30;;;;;;;3.40;1.98;;;27.40;99.30;;;;;;4931967;28;20243;-70
2022/05/23 10:51:04;;;;;;;3.33;3.08;;;27.60;99.90;;;;;;4932386;29;20346;-71
2022/05/23 10:53:44;;;;;;;3.88;2.60;;;27.60;98.80;;;;;;4915015;29;20285;-70
2022/05/23 10:56:21;;;;;;;8.27;2.90;;;27.30;99.50;;;;;;4931949;29;20231;-71
2022/05/23 10:58:57;;;;;;;2.33;2.13;;;27.10;99.00;;;;;;4930502;28;20314;-72
2022/05/23 11:01:40;;;;;;;5.75;3.00;;;27.10;99.50;;;;;;4933314;29;20218;-72
2022/05/23 11:04:22;;;;;;;4.45;2.65;;;27.10;99.90;;;;;;4931430;29;20338;-71
2022/05/23 11:07:03;;;;;;;2.90;2.60;;;27.00;99.90;;;;;;4932728;29;20687;-70
2022/05/23 11:09:41;;;;;;;4.63;4.05;;;26.90;99.90;;;;;;4930320;28;20909;-70
2022/05/23 11:12:18;;;;;;;7.15;3.55;;;26.50;99.90;;;;;;4930361;29;20218;-73
2022/05/23 11:15:02;;;;;;;6.20;3.33;;;26.20;99.90;;;;;;4928771;29;20342;-71
2022/05/23 11:17:33;;;;;;;3.20;2.95;;;26.50;99.90;;;;;;4932907;28;20322;-71
2022/05/23 11:20:10;;;;;;;3.75;3.25;;;26.50;99.90;;;;;;4929968;29;20235;-71
2022/05/23 11:22:43;;;;;;;4.15;3.17;;;26.50;99.90;;;;;;4930781;29;20283;-73
2022/05/23 11:25:30;;;;;;;4.10;3.40;;;26.50;99.90;;;;;;4934756;29;20200;-72
2022/05/23 11:33:48;;;;;;;5.40;3.75;;;25.70;99.90;;;;;;4932124;29;20255;-71
2022/05/23 11:36:34;;;;;;;5.43;2.60;;;25.50;99.90;;;;;;4932508;29;20207;-71
2022/05/23 11:39:02;;;;;;;4.38;3.30;;;25.40;99.90;;;;;;4927450;29;20259;-72
2022/05/23 11:41:39;;;;;;;8.30;3.60;;;25.40;99.90;;;;;;4929659;29;20658;-71
2022/05/23 11:44:32;;;;;;;5.22;3.53;;;25.30;99.90;;;;;;4927923;29;20196;-71
2022/05/23 11:47:16;;;;;;;4.53;3.20;;;25.30;99.90;;;;;;4928767;29;20251;-72
2022/05/23 11:49:48;;;;;;;4.40;4.00;;;25.40;99.90;;;;;;4929825;29;20240;-71
2022/05/23 11:52:24;;;;;;;4.45;3.85;;;25.30;99.90;;;;;;4934196;29;20210;-72
2022/05/23 11:54:52;;;;;;;3.72;3.05;;;25.20;99.90;;;;;;4937173;29;20286;-72
2022/05/23 11:57:36;;;;;;;4.45;2.70;;;25.20;99.90;;;;;;4940069;29;20235;-70
2022/05/23 12:00:36;;;;;;;3.10;2.85;;;25.10;99.90;;;;;;4936327;29;20228;-71
2022/05/23 12:03:15;;;;;;;5.65;3.35;;;24.90;99.90;;;;;;4925031;29;20235;-73
2022/05/23 12:05:44;;;;;;;8.38;2.90;;;24.70;99.90;;;;;;4934108;29;20210;-72
2022/05/23 12:08:32;;;;;;;11.63;4.28;;;24.60;99.90;;;;;;4933994;29;20232;-73
2022/05/23 12:11:03;;;;;;;4.05;3.40;;;24.60;99.90;;;;;;4932484;29;20219;-73
2022/05/23 12:13:46;;;;;;;3.60;3.20;;;24.60;99.90;;;;;;4930726;29;20282;-72
2022/05/23 12:16:26;;;;;;;3.70;3.40;;;24.70;99.90;;;;;;4932734;29;20196;-73
2022/05/23 12:19:35;;;;;;;5.32;3.10;;;24.60;99.90;;;;;;4934323;29;20224;-73
2022/05/23 12:22:21;;;;;;;3.47;2.72;;;24.60;99.90;;;;;;4930480;29;20259;-71
2022/05/23 12:25:24;;;;;;;4.30;3.85;;;24.70;99.90;;;;;;4934005;29;20628;-75
2022/05/23 12:28:21;;;;;;;3.78;2.80;;;24.70;99.90;;;;;;4932733;29;20299;-72
2022/05/23 12:31:16;;;;;;;8.38;4.20;;;24.70;99.90;;;;;;4935762;29;20262;-71
2022/05/23 12:33:49;;;;;;;3.45;3.13;;;24.70;99.90;;;;;;4934839;29;20208;-71
2022/05/23 12:36:27;;;;;;;5.28;3.90;;;24.80;99.90;;;;;;4935471;29;20626;-70
2022/05/23 12:39:03;;;;;;;3.70;3.08;;;24.80;99.90;;;;;;4931867;29;20231;-72
2022/05/23 12:41:49;;;;;;;4.47;3.10;;;24.70;99.90;;;;;;4935254;29;20259;-72
2022/05/23 12:45:05;;;;;;;5.03;3.33;;;24.80;99.90;;;;;;4928983;29;20573;-72
2022/05/23 12:47:58;;;;;;;4.85;3.20;;;24.60;99.90;;;;;;4932732;29;20212;-72
2022/05/23 12:50:40;;;;;;;3.22;2.90;;;24.50;99.90;;;;;;4928396;29;20704;-72
2022/05/23 12:53:33;;;;;;;3.45;3.05;;;24.40;99.90;;;;;;4936814;29;20687;-73
2022/05/23 12:56:24;;;;;;;5.07;3.50;;;24.40;99.90;;;;;;4931955;29;20275;-73
2022/05/23 12:59:27;;;;;;;5.28;4.03;;;24.30;99.90;;;;;;4932238;29;20262;-72
2022/05/23 13:02:02;;;;;;;6.15;3.45;;;24.40;99.90;;;;;;4934978;29;20242;-68
2022/05/23 13:04:40;;;;;;;4.05;3.63;;;24.40;99.90;;;;;;4933017;29;20286;-74
2022/05/23 13:07:13;;;;;;;7.95;3.60;;;24.20;99.90;;;;;;4930122;29;20689;-73
2022/05/23 13:09:47;;;;;;;6.50;3.63;;;24.00;99.90;;;;;;4933610;29;20228;-74
2022/05/23 13:12:22;;;;;;;5.95;3.88;;;23.90;99.90;;;;;;4932745;29;20648;-73
2022/05/23 13:14:57;;;;;;;9.80;3.83;;;24.00;99.90;;;;;;4934966;29;20258;-74
2022/05/23 13:17:36;;;;;;;5.18;3.60;;;24.00;99.90;;;;;;4933410;29;20204;-73
2022/05/23 13:22:50;;;;;;;8.05;4.05;;;23.80;99.90;;;;;;4934442;29;20301;-74
2022/05/23 13:25:28;;;;;;;6.40;4.78;;;23.80;99.90;;;;;;4941615;29;20236;-74
2022/05/23 13:27:58;;;;;;;5.70;4.85;;;23.90;99.90;;;;;;4934149;29;20243;-72
2022/05/23 13:30:29;;;;;;;4.75;4.13;;;23.80;99.90;;;;;;4932123;29;20311;-75
2022/05/23 13:33:08;;;;;;;7.38;4.18;;;23.90;99.90;;;;;;4930714;29;20204;-74
2022/05/23 13:35:36;;;;;;;9.93;4.50;;;23.90;99.90;;;;;;4934637;29;20741;-74
2022/05/23 13:38:17;;;;;;;7.18;5.00;;;23.90;99.90;;;;;;4931191;29;20702;-74
2022/05/23 13:40:49;;;;;;;5.10;4.68;;;23.90;99.90;;;;;;4931726;29;20204;-74
2022/05/23 13:43:19;;;;;;;4.43;3.92;;;24.00;99.90;;;;;;4929890;29;20332;-74
2022/05/23 13:45:57;;;;;;;7.20;4.05;;;24.00;99.90;;;;;;4931892;29;20208;-73
2022/05/23 13:48:32;;;;;;;4.72;4.32;;;24.20;99.90;;;;;;4928631;29;20247;-74
2022/05/23 13:51:04;;;;;;;8.25;4.50;;;24.30;99.90;;;;;;4933393;29;20219;-74
2022/05/23 13:53:37;;;;;;;6.97;4.53;;;24.60;99.90;;;;;;4929600;29;20227;-74
2022/05/23 13:56:07;;;;;;;7.43;4.38;;;24.90;99.90;;;;;;4929328;29;20765;-74
2022/05/23 13:58:41;;;;;;;4.38;3.97;;;25.10;99.90;;;;;;4933650;29;20236;-74
2022/05/23 14:01:20;;;;;;;6.63;4.53;;;25.10;99.90;;;;;;4926497;29;20247;-72
2022/05/23 14:03:54;;;;;;;12.35;4.82;;;25.00;99.90;;;;;;4931884;29;20208;-73
2022/05/23 14:06:27;;;;;;;9.02;4.75;;;25.10;99.90;;;;;;4930537;29;20247;-75
2022/05/23 14:08:58;;;;;;;5.88;5.35;;;25.00;99.90;;;;;;4933225;29;20212;-75
2022/05/23 14:11:30;;;;;;;5.80;4.38;;;25.10;99.90;;;;;;4932903;29;20220;-74
2022/05/23 14:14:01;;;;;;;6.57;4.82;;;25.00;99.90;;;;;;4931265;29;20200;-74